Time;durP1;ratioP1;P1;durP2;ratioP2;P2;SDS_P1;SDS_P2;PMS_P1;PMS_P2;Temp;Humidity;BMP_temperature;BMP_pressure;BME280_temperature;BME280_humidity;BME280_pressure;Samples;Min_cycle;Max_cycle;Signal;HPM_P1;HPM_P2
2022/09/18 00:01:47;;;;;;;4.43;3.03;;;9.50;99.90;;;;;;5073607;28;20268;-73
2022/09/18 00:04:13;;;;;;;8.07;3.00;;;9.50;99.90;;;;;;5073559;28;20165;-73
2022/09/18 00:06:46;;;;;;;10.95;2.95;;;9.50;99.90;;;;;;5073693;28;20207;-73
2022/09/18 00:09:13;;;;;;;6.47;2.42;;;9.50;99.90;;;;;;5074670;28;20170;-73
2022/09/18 00:11:43;;;;;;;9.30;2.95;;;9.50;99.90;;;;;;5073329;28;20201;-73
2022/09/18 00:14:10;;;;;;;8.63;2.97;;;9.60;99.90;;;;;;5073396;28;20180;-73
2022/09/18 00:16:37;;;;;;;10.30;3.53;;;9.60;99.90;;;;;;5073808;28;20197;-73
2022/09/18 00:19:03;;;;;;;9.93;2.70;;;9.60;99.90;;;;;;5073172;28;20185;-73
2022/09/18 00:21:30;;;;;;;7.13;2.95;;;9.60;99.90;;;;;;5073477;28;20187;-73
2022/09/18 00:23:58;;;;;;;9.02;5.22;;;9.60;99.90;;;;;;5074374;28;20176;-73
2022/09/18 00:26:24;;;;;;;6.32;2.33;;;9.50;99.90;;;;;;5073208;28;20220;-73
2022/09/18 00:28:51;;;;;;;11.13;3.10;;;9.50;99.90;;;;;;5073189;28;20189;-73
2022/09/18 00:31:19;;;;;;;8.98;2.35;;;9.40;99.90;;;;;;5072791;28;20238;-73
2022/09/18 00:33:45;;;;;;;5.70;2.40;;;9.40;99.90;;;;;;5073256;28;20170;-73
2022/09/18 00:36:13;;;;;;;10.30;2.25;;;9.40;99.90;;;;;;5072887;28;20196;-73
2022/09/18 00:38:40;;;;;;;8.32;2.50;;;9.40;99.90;;;;;;5074276;28;20173;-73
2022/09/18 00:41:10;;;;;;;7.40;2.42;;;9.50;99.90;;;;;;5073590;28;20181;-73
2022/09/18 00:43:36;;;;;;;7.50;2.20;;;9.40;99.90;;;;;;5074833;28;20181;-73
2022/09/18 00:46:17;;;;;;;5.95;2.38;;;9.30;99.90;;;;;;5072619;28;20216;-73
2022/09/18 00:48:52;;;;;;;7.70;2.50;;;9.40;99.90;;;;;;5073556;28;20211;-73
2022/09/18 00:51:18;;;;;;;5.57;2.17;;;9.40;99.90;;;;;;5072632;28;20197;-73
2022/09/18 00:53:51;;;;;;;8.43;2.17;;;9.40;99.90;;;;;;5072552;28;20230;-73
2022/09/18 00:56:17;;;;;;;5.93;2.58;;;9.50;99.90;;;;;;5072396;28;20763;-73
2022/09/18 00:58:43;;;;;;;9.32;2.42;;;9.50;99.90;;;;;;5072833;28;20319;-73
2022/09/18 01:01:09;;;;;;;9.82;2.15;;;9.50;99.90;;;;;;5073352;28;20264;-73
2022/09/18 01:03:35;;;;;;;7.28;2.60;;;9.50;99.90;;;;;;5072470;28;20262;-73
2022/09/18 01:06:13;;;;;;;5.95;2.03;;;9.60;99.90;;;;;;5073573;28;20669;-73
2022/09/18 01:09:10;;;;;;;6.15;2.03;;;9.60;99.90;;;;;;5073314;28;20223;-73
2022/09/18 01:11:50;;;;;;;3.85;1.85;;;9.60;99.90;;;;;;5072243;28;20223;-73
2022/09/18 01:14:27;;;;;;;5.65;2.08;;;9.70;99.90;;;;;;5073459;28;20166;-73
2022/09/18 01:17:14;;;;;;;4.40;1.90;;;9.70;99.90;;;;;;5072913;28;20201;-73
2022/09/18 01:19:48;;;;;;;8.07;2.40;;;9.70;99.90;;;;;;5072423;28;20215;-73
2022/09/18 01:22:44;;;;;;;7.15;2.40;;;9.70;99.90;;;;;;5072318;28;20165;-73
2022/09/18 01:25:35;;;;;;;6.22;2.25;;;9.80;99.90;;;;;;5072226;28;20272;-73
2022/09/18 01:28:37;;;;;;;9.18;2.30;;;9.80;99.90;;;;;;5071965;28;20525;-73
2022/09/18 01:31:21;;;;;;;3.75;2.10;;;9.80;99.90;;;;;;5068856;28;20248;-73
2022/09/18 01:34:12;;;;;;;6.10;2.40;;;9.80;99.90;;;;;;5073122;28;20161;-73
2022/09/18 01:36:43;;;;;;;4.10;2.15;;;9.80;99.90;;;;;;5073654;28;20200;-73
2022/09/18 01:39:17;;;;;;;6.28;2.30;;;9.80;99.90;;;;;;5072118;28;20207;-73
2022/09/18 01:41:49;;;;;;;4.78;2.22;;;9.80;99.90;;;;;;5073368;28;20184;-73
2022/09/18 01:44:20;;;;;;;8.43;2.65;;;9.80;99.90;;;;;;5073343;28;20165;-73
2022/09/18 01:46:48;;;;;;;5.75;2.13;;;9.80;99.90;;;;;;5073190;28;20231;-73
2022/09/18 01:49:22;;;;;;;4.07;2.13;;;9.70;99.90;;;;;;5073552;28;20173;-73
2022/09/18 01:52:26;;;;;;;7.38;2.17;;;9.70;99.90;;;;;;5072026;28;20288;-73
2022/09/18 01:54:54;;;;;;;6.95;2.38;;;9.60;99.90;;;;;;5072150;28;20196;-73
2022/09/18 01:57:31;;;;;;;5.72;2.72;;;9.50;99.90;;;;;;5072139;28;20198;-73
2022/09/18 02:00:03;;;;;;;6.85;2.55;;;9.50;99.90;;;;;;5071901;28;20197;-73
2022/09/18 02:03:01;;;;;;;7.97;2.75;;;9.50;99.90;;;;;;5072041;28;20177;-73
2022/09/18 02:05:31;;;;;;;7.03;2.42;;;9.50;99.90;;;;;;5063559;28;20190;-73
2022/09/18 02:08:09;;;;;;;5.30;2.25;;;9.50;99.90;;;;;;5073253;28;20249;-73
2022/09/18 02:10:39;;;;;;;7.10;2.75;;;9.60;99.90;;;;;;5073171;28;20162;-78
2022/09/18 02:13:08;;;;;;;4.47;2.58;;;9.60;99.90;;;;;;5072188;28;20268;-73
2022/09/18 02:18:59;;;;;;;8.23;2.22;;;9.60;99.90;;;;;;5073269;28;20161;-73
2022/09/18 02:21:29;;;;;;;4.03;2.35;;;9.60;99.90;;;;;;5071974;28;20277;-73
2022/09/18 02:24:01;;;;;;;5.70;2.97;;;9.60;99.90;;;;;;5071653;28;20182;-73
2022/09/18 02:26:28;;;;;;;8.32;2.45;;;9.70;99.90;;;;;;5073172;28;20209;-73
2022/09/18 02:28:56;;;;;;;8.13;2.60;;;9.70;99.90;;;;;;5072723;28;20173;-73
2022/09/18 02:31:21;;;;;;;7.28;2.45;;;9.70;99.90;;;;;;5071358;28;20216;-73
2022/09/18 02:33:48;;;;;;;5.68;2.50;;;9.70;99.90;;;;;;5072443;28;20178;-73
2022/09/18 02:36:41;;;;;;;6.88;2.65;;;9.70;99.90;;;;;;5071437;28;20197;-74
2022/09/18 02:39:31;;;;;;;7.38;2.75;;;9.70;99.90;;;;;;5073813;28;20185;-74
2022/09/18 02:42:07;;;;;;;4.75;2.40;;;9.80;99.90;;;;;;5076586;28;20154;-74
2022/09/18 02:48:27;;;;;;;6.50;2.90;;;9.70;99.90;;;;;;5076527;28;20164;-74
2022/09/18 02:51:07;;;;;;;5.10;3.10;;;9.70;99.90;;;;;;5075209;28;20209;-74
2022/09/18 02:53:51;;;;;;;5.20;2.80;;;9.70;99.90;;;;;;5075777;28;20169;-74
2022/09/18 02:56:27;;;;;;;5.93;2.70;;;9.70;99.90;;;;;;5075958;28;20249;-74
2022/09/18 02:58:59;;;;;;;6.05;2.85;;;9.70;99.90;;;;;;5076378;28;20168;-74
2022/09/18 03:01:26;;;;;;;4.28;2.70;;;9.70;99.90;;;;;;5074776;28;20774;-74
2022/09/18 03:03:51;;;;;;;5.15;2.65;;;9.70;99.90;;;;;;5074760;28;20216;-74
2022/09/18 03:06:17;;;;;;;10.98;2.97;;;9.70;99.90;;;;;;5074539;28;20586;-74
2022/09/18 03:08:43;;;;;;;7.28;3.00;;;9.70;99.90;;;;;;5074772;28;20268;-74
2022/09/18 03:11:08;;;;;;;4.90;2.80;;;9.80;99.90;;;;;;5076048;28;20207;-74
2022/09/18 03:13:34;;;;;;;5.55;3.00;;;9.70;99.90;;;;;;5074604;28;20197;-74
2022/09/18 03:16:00;;;;;;;6.93;2.78;;;9.70;99.90;;;;;;5075976;28;20589;-74
2022/09/18 03:18:25;;;;;;;7.03;3.00;;;9.70;99.90;;;;;;5074335;28;20174;-74
2022/09/18 03:20:51;;;;;;;4.25;2.72;;;9.60;99.90;;;;;;5074610;28;20174;-74
2022/09/18 03:23:17;;;;;;;6.32;3.10;;;9.60;99.90;;;;;;5074422;28;20181;-74
2022/09/18 03:25:42;;;;;;;6.22;2.80;;;9.60;99.90;;;;;;5074577;28;20296;-74
2022/09/18 03:28:08;;;;;;;5.20;3.17;;;9.50;99.90;;;;;;5075797;28;20185;-74
2022/09/18 03:30:33;;;;;;;6.63;3.42;;;9.50;99.90;;;;;;5074225;28;20185;-74
2022/09/18 03:32:59;;;;;;;5.95;2.80;;;9.50;99.90;;;;;;5075323;28;20570;-74
2022/09/18 03:35:24;;;;;;;5.88;3.10;;;9.50;99.90;;;;;;5075867;28;20172;-74
2022/09/18 03:37:50;;;;;;;6.35;3.20;;;9.50;99.90;;;;;;5075118;28;20548;-74
2022/09/18 03:40:16;;;;;;;5.30;2.88;;;9.50;99.90;;;;;;5074196;28;20260;-74
2022/09/18 03:42:43;;;;;;;5.25;3.05;;;9.60;99.90;;;;;;5074224;28;20216;-74
2022/09/18 03:45:10;;;;;;;7.10;3.40;;;9.60;99.90;;;;;;5074274;28;20185;-74
2022/09/18 03:47:35;;;;;;;6.38;3.15;;;9.60;99.90;;;;;;5073835;28;20229;-73
2022/09/18 03:50:01;;;;;;;5.38;2.97;;;9.60;99.90;;;;;;5075112;28;20201;-73
2022/09/18 03:52:26;;;;;;;3.35;2.97;;;9.70;99.90;;;;;;5073736;28;20622;-73
2022/09/18 03:54:53;;;;;;;5.15;3.03;;;9.70;99.90;;;;;;5073871;28;20245;-73
2022/09/18 03:57:19;;;;;;;4.95;2.67;;;9.70;99.90;;;;;;5074875;28;20247;-73
2022/09/18 03:59:44;;;;;;;4.88;3.08;;;9.70;99.90;;;;;;5073718;28;20205;-73
2022/09/18 04:02:10;;;;;;;6.38;3.17;;;9.70;99.90;;;;;;5073715;28;20178;-73
2022/09/18 04:04:35;;;;;;;5.32;2.92;;;9.70;99.90;;;;;;5073520;28;20170;-73
2022/09/18 04:07:01;;;;;;;6.95;3.22;;;9.70;99.90;;;;;;5073458;28;20197;-73
2022/09/18 04:09:26;;;;;;;7.10;2.85;;;9.60;99.90;;;;;;5074697;28;20177;-73
2022/09/18 04:11:52;;;;;;;6.57;3.08;;;9.70;99.90;;;;;;5073398;28;20205;-73
2022/09/18 04:17:49;;;;;;;3.38;2.60;;;9.60;99.90;;;;;;5074741;28;20196;-73
2022/09/18 04:20:14;;;;;;;5.40;2.92;;;9.60;99.90;;;;;;5073277;28;20198;-73
2022/09/18 04:22:40;;;;;;;5.32;2.70;;;9.50;99.90;;;;;;5073111;28;20272;-73
2022/09/18 04:25:06;;;;;;;2.97;2.53;;;9.60;99.90;;;;;;5073208;28;20169;-73
2022/09/18 04:27:33;;;;;;;6.80;2.67;;;9.60;99.90;;;;;;5073526;28;20255;-73
2022/09/18 04:29:59;;;;;;;6.68;2.83;;;9.60;99.90;;;;;;5073110;28;20201;-73
2022/09/18 04:32:24;;;;;;;4.32;2.72;;;9.70;99.90;;;;;;5072844;28;20287;-73
2022/09/18 04:34:50;;;;;;;6.32;2.80;;;9.70;99.90;;;;;;5072944;28;20588;-73
2022/09/18 04:37:15;;;;;;;5.95;2.80;;;9.70;99.90;;;;;;5072742;28;20198;-73
2022/09/18 04:39:41;;;;;;;6.88;2.83;;;9.70;99.90;;;;;;5072792;28;20180;-73
2022/09/18 04:42:07;;;;;;;3.45;2.47;;;9.70;99.90;;;;;;5074299;28;20231;-73
2022/09/18 04:44:32;;;;;;;5.43;2.85;;;9.70;99.90;;;;;;5073318;28;20189;-73
2022/09/18 04:46:58;;;;;;;5.40;2.80;;;9.70;99.90;;;;;;5072700;28;20201;-73
2022/09/18 04:49:23;;;;;;;4.38;2.90;;;9.70;99.90;;;;;;5072998;28;20181;-73
2022/09/18 04:51:49;;;;;;;4.32;2.78;;;9.70;99.90;;;;;;5073755;28;20193;-73
2022/09/18 04:54:14;;;;;;;2.58;2.30;;;9.70;99.90;;;;;;5074665;28;20173;-73
2022/09/18 04:56:40;;;;;;;4.13;2.50;;;9.70;99.90;;;;;;5072808;28;20212;-73
2022/09/18 04:59:06;;;;;;;3.15;2.28;;;9.70;99.90;;;;;;5072618;28;20174;-73
2022/09/18 05:01:33;;;;;;;6.75;2.70;;;9.60;99.90;;;;;;5073349;28;20279;-73
2022/09/18 05:03:58;;;;;;;8.20;2.85;;;9.70;99.90;;;;;;5072477;28;20188;-73
2022/09/18 05:06:24;;;;;;;4.53;2.75;;;9.60;99.90;;;;;;5072437;28;20198;-73
2022/09/18 05:08:50;;;;;;;5.05;3.20;;;9.70;99.90;;;;;;5072467;28;20179;-73
2022/09/18 05:11:15;;;;;;;3.47;2.42;;;9.70;99.90;;;;;;5073525;28;20229;-73
2022/09/18 05:13:42;;;;;;;7.43;2.83;;;9.70;99.90;;;;;;5072383;28;20178;-73
2022/09/18 05:16:08;;;;;;;5.50;2.72;;;9.90;99.90;;;;;;5072618;28;20228;-73
2022/09/18 05:18:34;;;;;;;7.70;3.00;;;9.90;99.90;;;;;;5072307;28;20184;-73
2022/09/18 05:21:03;;;;;;;5.90;2.53;;;10.00;99.90;;;;;;5073143;28;20177;-73
2022/09/18 05:23:29;;;;;;;4.43;2.30;;;10.10;99.90;;;;;;5072555;28;20181;-73
2022/09/18 05:25:55;;;;;;;6.15;2.10;;;10.20;99.90;;;;;;5072141;28;20695;-73
2022/09/18 05:28:20;;;;;;;4.53;2.33;;;10.20;99.90;;;;;;5072251;28;20254;-73
2022/09/18 05:30:46;;;;;;;4.63;2.30;;;10.30;99.90;;;;;;5072127;28;20245;-73
2022/09/18 05:33:12;;;;;;;3.47;2.20;;;10.40;99.90;;;;;;5073311;28;20209;-73
2022/09/18 05:35:38;;;;;;;3.58;2.10;;;10.40;99.90;;;;;;5072126;28;20696;-73
2022/09/18 05:38:04;;;;;;;2.60;2.00;;;10.40;99.90;;;;;;5072143;28;20242;-73
2022/09/18 05:40:33;;;;;;;6.15;2.50;;;10.40;99.90;;;;;;5072377;28;20173;-73
2022/09/18 05:42:59;;;;;;;4.43;2.20;;;10.30;99.90;;;;;;5073308;28;20177;-73
2022/09/18 05:45:25;;;;;;;2.42;1.60;;;10.30;99.90;;;;;;5072315;28;20178;-73
2022/09/18 05:48:04;;;;;;;3.30;1.98;;;10.30;99.90;;;;;;5072776;28;20250;-73
2022/09/18 05:50:31;;;;;;;2.97;1.70;;;10.30;99.90;;;;;;5072880;28;20244;-73
2022/09/18 05:52:57;;;;;;;3.05;1.70;;;10.40;99.90;;;;;;5072193;28;20216;-73
2022/09/18 05:58:45;;;;;;;3.45;2.10;;;10.30;99.90;;;;;;5073468;28;20203;-73
2022/09/18 06:01:13;;;;;;;4.22;1.98;;;10.30;99.90;;;;;;5071942;28;20178;-73
2022/09/18 06:03:38;;;;;;;3.55;1.80;;;10.30;99.90;;;;;;5071953;28;20185;-73
2022/09/18 06:06:04;;;;;;;3.17;2.20;;;10.30;99.90;;;;;;5071822;28;20201;-73
2022/09/18 06:08:30;;;;;;;4.53;2.13;;;10.30;99.90;;;;;;5073037;28;20252;-73
2022/09/18 06:10:59;;;;;;;5.82;1.98;;;10.30;99.90;;;;;;5071723;28;20181;-73
2022/09/18 06:13:25;;;;;;;4.95;2.60;;;10.30;99.90;;;;;;5072853;28;20173;-73
2022/09/18 06:15:51;;;;;;;3.42;2.22;;;10.30;99.90;;;;;;5076753;28;20216;-73
2022/09/18 06:18:17;;;;;;;2.80;2.15;;;10.40;99.90;;;;;;5075650;28;20180;-73
2022/09/18 06:20:50;;;;;;;3.97;2.38;;;10.40;99.90;;;;;;5075500;28;20181;-73
2022/09/18 06:23:15;;;;;;;3.75;2.20;;;10.30;99.90;;;;;;5076364;28;20177;-73
2022/09/18 06:25:41;;;;;;;3.22;1.92;;;10.40;99.90;;;;;;5076567;28;20177;-73
2022/09/18 06:28:06;;;;;;;5.32;2.13;;;10.30;99.90;;;;;;5076907;28;20190;-73
2022/09/18 06:30:34;;;;;;;5.68;2.20;;;10.40;99.90;;;;;;5075291;28;20225;-73
2022/09/18 06:33:02;;;;;;;5.68;2.30;;;10.40;99.90;;;;;;5075273;28;20205;-74
2022/09/18 06:35:28;;;;;;;2.95;2.15;;;10.40;99.90;;;;;;5075231;28;20170;-74
2022/09/18 06:37:53;;;;;;;3.63;2.40;;;10.40;99.90;;;;;;5075186;28;20173;-74
2022/09/18 06:40:19;;;;;;;3.38;2.20;;;10.40;99.90;;;;;;5075498;28;20177;-74
2022/09/18 06:42:44;;;;;;;6.50;2.60;;;10.40;99.90;;;;;;5075069;28;20284;-74
2022/09/18 06:45:10;;;;;;;3.20;2.35;;;10.40;99.90;;;;;;5076020;28;20177;-74
2022/09/18 06:47:36;;;;;;;3.35;2.15;;;10.40;99.90;;;;;;5075370;28;20235;-74
2022/09/18 06:50:02;;;;;;;5.88;2.72;;;10.40;99.90;;;;;;5075256;28;20178;-74
2022/09/18 06:52:28;;;;;;;3.63;2.20;;;10.40;99.90;;;;;;5074860;28;20213;-74
2022/09/18 06:54:53;;;;;;;3.88;2.20;;;10.50;99.90;;;;;;5075862;28;20177;-74
2022/09/18 06:57:19;;;;;;;4.53;2.15;;;10.50;99.90;;;;;;5075226;28;20282;-74
2022/09/18 06:59:44;;;;;;;5.47;2.42;;;10.60;99.90;;;;;;5074874;28;20170;-74
2022/09/18 07:02:14;;;;;;;8.05;6.32;;;10.70;99.90;;;;;;5074925;28;20292;-73
2022/09/18 07:04:40;;;;;;;4.55;3.70;;;10.80;99.90;;;;;;5074838;28;20258;-73
2022/09/18 07:07:07;;;;;;;4.72;4.20;;;10.80;99.90;;;;;;5074681;28;20225;-73
2022/09/18 07:09:32;;;;;;;6.45;3.92;;;10.90;99.90;;;;;;5074865;28;20196;-73
2022/09/18 07:11:58;;;;;;;5.47;2.60;;;11.00;99.90;;;;;;5074958;28;20288;-73
2022/09/18 07:14:24;;;;;;;4.28;2.70;;;11.00;99.90;;;;;;5075026;28;20177;-73
2022/09/18 07:16:49;;;;;;;4.97;2.50;;;11.00;99.90;;;;;;5074506;28;20197;-73
2022/09/18 07:19:15;;;;;;;2.60;2.00;;;11.00;99.90;;;;;;5075342;28;20173;-73
2022/09/18 07:21:40;;;;;;;3.17;2.28;;;11.00;99.90;;;;;;5074698;28;20184;-73
2022/09/18 07:24:21;;;;;;;4.13;2.10;;;11.00;99.90;;;;;;5075310;28;20543;-73
2022/09/18 07:26:47;;;;;;;3.03;2.00;;;11.00;99.90;;;;;;5075148;28;20240;-74
2022/09/18 07:29:12;;;;;;;2.22;1.85;;;10.90;99.90;;;;;;5075810;28;20177;-74
2022/09/18 07:31:38;;;;;;;6.43;2.30;;;10.90;99.90;;;;;;5073914;28;20221;-74
2022/09/18 07:34:06;;;;;;;2.03;1.70;;;10.90;99.90;;;;;;5058462;28;20208;-74
2022/09/18 07:36:31;;;;;;;6.38;3.22;;;10.90;99.90;;;;;;5075305;28;20192;-74
2022/09/18 07:38:57;;;;;;;4.25;2.25;;;10.90;99.90;;;;;;5074414;28;20177;-74
2022/09/18 07:41:22;;;;;;;5.00;2.50;;;10.90;99.90;;;;;;5075229;28;20268;-74
2022/09/18 07:43:49;;;;;;;6.05;3.30;;;10.90;99.90;;;;;;5074026;28;20227;-74
2022/09/18 07:46:15;;;;;;;4.93;3.45;;;10.90;99.90;;;;;;5074815;28;20206;-74
2022/09/18 07:48:40;;;;;;;4.32;2.92;;;10.90;99.90;;;;;;5075103;28;20671;-74
2022/09/18 07:51:06;;;;;;;2.60;2.40;;;10.90;99.90;;;;;;5073766;28;20178;-74
2022/09/18 07:53:36;;;;;;;4.30;2.55;;;10.90;99.90;;;;;;5074884;28;20216;-74
2022/09/18 07:56:06;;;;;;;6.22;3.13;;;10.90;99.90;;;;;;5074411;28;20285;-74
2022/09/18 07:58:32;;;;;;;3.40;2.08;;;10.90;99.90;;;;;;5075791;28;20158;-73
2022/09/18 08:01:01;;;;;;;4.07;2.55;;;10.90;99.90;;;;;;5074822;28;20195;-73
2022/09/18 08:03:28;;;;;;;5.88;2.20;;;10.90;99.90;;;;;;5073572;28;20173;-73
2022/09/18 08:05:54;;;;;;;6.65;2.10;;;10.90;99.90;;;;;;5074389;28;20194;-73
2022/09/18 08:08:20;;;;;;;3.10;2.10;;;11.00;99.90;;;;;;5073648;28;20641;-73
2022/09/18 08:10:45;;;;;;;7.30;2.53;;;11.00;99.90;;;;;;5073740;28;20236;-73
2022/09/18 08:13:11;;;;;;;5.10;2.53;;;11.00;99.90;;;;;;5073354;28;20555;-73
2022/09/18 08:15:39;;;;;;;4.18;2.30;;;11.00;99.90;;;;;;5073413;28;20216;-73
2022/09/18 08:18:06;;;;;;;3.88;2.58;;;11.20;99.90;;;;;;5074563;28;20178;-73
2022/09/18 08:20:32;;;;;;;2.55;1.98;;;11.30;99.90;;;;;;5073541;28;20641;-73
2022/09/18 08:22:58;;;;;;;2.83;1.90;;;11.40;99.90;;;;;;5073141;28;20177;-73
2022/09/18 08:25:26;;;;;;;4.80;1.90;;;11.40;99.90;;;;;;5074326;28;20181;-73
2022/09/18 08:27:51;;;;;;;2.97;1.50;;;11.40;99.90;;;;;;5073418;28;20236;-73
2022/09/18 08:30:17;;;;;;;3.00;2.70;;;11.40;99.90;;;;;;5073836;28;20177;-73
2022/09/18 08:32:43;;;;;;;10.57;9.57;;;11.50;99.90;;;;;;5072909;28;20201;-73
2022/09/18 08:35:09;;;;;;;19.10;17.35;;;11.50;99.90;;;;;;5073253;28;20185;-73
2022/09/18 08:37:35;;;;;;;6.53;5.93;;;11.60;99.90;;;;;;5072125;28;20247;-73
2022/09/18 08:40:03;;;;;;;4.38;4.03;;;11.60;99.90;;;;;;5072976;28;20244;-73
2022/09/18 08:42:32;;;;;;;3.90;3.50;;;11.60;99.90;;;;;;5072905;28;20187;-73
2022/09/18 08:45:57;;;;;;;2.28;1.92;;;11.50;99.90;;;;;;5073126;28;20204;-73
2022/09/18 08:49:07;;;;;;;2.25;1.85;;;11.60;99.90;;;;;;5072768;28;20178;-73
2022/09/18 08:52:03;;;;;;;1.63;1.50;;;11.70;99.90;;;;;;5066920;28;20237;-75
2022/09/18 08:54:54;;;;;;;1.35;1.27;;;11.70;99.90;;;;;;5070125;28;20178;-74
2022/09/18 08:57:34;;;;;;;1.77;1.10;;;11.80;99.90;;;;;;5072625;28;20193;-75
2022/09/18 09:00:41;;;;;;;2.10;1.52;;;11.80;99.90;;;;;;5073136;28;20180;-74
2022/09/18 09:03:40;;;;;;;1.77;1.60;;;11.80;99.90;;;;;;5035172;28;20178;-73
2022/09/18 09:09:53;;;;;;;2.05;1.73;;;11.70;99.90;;;;;;5075272;28;20200;-79
2022/09/18 09:13:07;;;;;;;2.03;1.58;;;11.60;99.90;;;;;;5073172;28;20221;-73
2022/09/18 09:15:55;;;;;;;2.35;2.00;;;11.70;99.90;;;;;;5073226;28;20166;-73
2022/09/18 09:18:47;;;;;;;2.97;2.28;;;11.90;99.90;;;;;;5072599;28;20169;-73
2022/09/18 09:21:59;;;;;;;2.13;1.63;;;12.00;99.90;;;;;;5072646;28;20162;-73
2022/09/18 09:24:29;;;;;;;2.45;1.70;;;12.00;99.90;;;;;;5070377;28;20177;-73
2022/09/18 09:27:41;;;;;;;2.65;2.13;;;12.00;99.90;;;;;;5073643;28;20197;-73
2022/09/18 09:30:16;;;;;;;3.50;1.70;;;12.10;99.90;;;;;;5073763;28;20154;-74
2022/09/18 09:32:54;;;;;;;2.92;1.35;;;12.20;99.90;;;;;;5072173;28;20299;-74
2022/09/18 09:35:41;;;;;;;3.35;2.00;;;12.20;99.90;;;;;;5073341;28;20242;-73
2022/09/18 09:41:43;;;;;;;2.13;1.60;;;12.20;99.90;;;;;;5073296;28;20287;-74
2022/09/18 09:44:22;;;;;;;1.88;1.65;;;12.50;99.90;;;;;;5072187;28;20173;-73
2022/09/18 09:50:39;;;;;;;6.47;1.70;;;12.60;99.90;;;;;;5077549;28;20215;-74
2022/09/18 09:53:48;;;;;;;1.63;1.30;;;12.60;99.90;;;;;;5076055;28;20200;-74
2022/09/18 09:56:48;;;;;;;2.17;1.20;;;12.50;99.90;;;;;;5076038;28;20193;-74
2022/09/18 10:00:08;;;;;;;3.20;1.80;;;12.60;99.90;;;;;;5075944;28;20222;-75
2022/09/18 10:02:42;;;;;;;1.80;1.35;;;12.70;99.90;;;;;;5077429;28;20169;-73
2022/09/18 10:05:42;;;;;;;3.65;1.50;;;12.90;99.90;;;;;;5076461;28;20241;-73
2022/09/18 10:11:34;;;;;;;1.75;1.25;;;12.90;99.90;;;;;;5077149;28;20729;-74
2022/09/18 10:14:39;;;;;;;1.75;1.33;;;12.90;99.90;;;;;;5075729;28;20195;-73
2022/09/18 10:17:18;;;;;;;1.50;1.40;;;12.90;99.90;;;;;;5075573;28;20224;-74
2022/09/18 10:19:44;;;;;;;2.60;1.25;;;12.90;99.90;;;;;;5075613;28;20180;-74
2022/09/18 10:22:29;;;;;;;1.58;1.30;;;12.80;99.90;;;;;;5075567;28;20182;-74
2022/09/18 10:25:11;;;;;;;1.15;1.05;;;12.80;99.90;;;;;;5075473;28;20165;-74
2022/09/18 10:27:37;;;;;;;1.00;0.98;;;12.80;99.90;;;;;;5075342;28;20213;-74
2022/09/18 10:30:13;;;;;;;1.33;1.23;;;12.90;99.90;;;;;;5075384;28;20372;-74
2022/09/18 10:32:55;;;;;;;1.05;1.00;;;13.10;99.90;;;;;;5075328;28;20201;-74
2022/09/18 10:35:29;;;;;;;1.23;1.13;;;13.00;99.90;;;;;;5076859;28;20157;-74
2022/09/18 10:37:56;;;;;;;1.45;1.27;;;13.10;99.90;;;;;;5075378;28;20165;-74
2022/09/18 10:40:44;;;;;;;1.27;1.17;;;13.20;99.90;;;;;;5075057;28;20177;-73
2022/09/18 10:43:16;;;;;;;1.20;0.98;;;13.20;99.90;;;;;;5075056;28;20178;-73
2022/09/18 10:45:51;;;;;;;2.05;1.30;;;13.40;99.90;;;;;;5075690;28;20231;-74
2022/09/18 10:48:22;;;;;;;1.10;1.10;;;13.50;99.90;;;;;;5075185;28;20650;-76
2022/09/18 10:51:00;;;;;;;1.08;1.08;;;13.50;99.90;;;;;;5076196;28;20165;-74
2022/09/18 10:53:41;;;;;;;1.33;1.08;;;13.60;99.90;;;;;;5076133;28;20193;-74
2022/09/18 10:56:19;;;;;;;2.28;1.40;;;13.70;99.90;;;;;;5076119;28;20602;-72
2022/09/18 10:58:49;;;;;;;1.15;0.95;;;13.80;99.90;;;;;;5074807;28;20256;-73
2022/09/18 11:01:15;;;;;;;2.28;1.00;;;13.90;99.90;;;;;;5074195;28;20166;-73
2022/09/18 11:04:00;;;;;;;3.30;1.30;;;13.80;99.90;;;;;;5075649;28;20166;-73
2022/09/18 11:06:33;;;;;;;1.63;0.93;;;13.90;99.90;;;;;;5074939;28;20201;-74
2022/09/18 11:09:09;;;;;;;1.08;0.98;;;13.80;99.90;;;;;;5075460;28;20169;-74
2022/09/18 11:12:23;;;;;;;2.38;1.00;;;13.70;99.90;;;;;;5076162;28;20164;-74
2022/09/18 11:18:14;;;;;;;1.30;1.20;;;13.70;99.90;;;;;;5076083;28;20223;-75
2022/09/18 11:20:47;;;;;;;0.98;0.90;;;13.70;99.90;;;;;;5075727;28;20174;-74
2022/09/18 11:23:36;;;;;;;1.27;1.10;;;13.50;99.90;;;;;;5074870;28;20189;-74
2022/09/18 11:29:29;;;;;;;1.65;1.08;;;13.20;99.90;;;;;;5075730;28;20167;-74
2022/09/18 11:32:18;;;;;;;1.35;1.15;;;13.10;99.90;;;;;;5074466;28;20193;-74
2022/09/18 11:34:49;;;;;;;2.47;1.20;;;13.00;99.90;;;;;;5074968;28;20170;-74
2022/09/18 11:37:29;;;;;;;1.65;1.17;;;13.00;99.90;;;;;;5075169;28;20287;-74
2022/09/18 11:40:05;;;;;;;2.80;1.17;;;12.90;99.90;;;;;;5074188;28;20197;-74
2022/09/18 11:42:31;;;;;;;1.02;0.90;;;12.80;99.90;;;;;;5074053;28;20199;-74
2022/09/18 11:45:49;;;;;;;1.77;1.13;;;12.80;99.90;;;;;;5073909;28;20264;-74
2022/09/18 11:48:35;;;;;;;2.60;1.52;;;12.90;99.90;;;;;;5074202;28;20227;-74
2022/09/18 11:51:15;;;;;;;1.45;1.10;;;12.80;99.90;;;;;;5073983;28;20166;-74
2022/09/18 11:53:44;;;;;;;2.92;1.00;;;12.90;99.90;;;;;;5073833;28;20177;-74
2022/09/18 11:56:13;;;;;;;1.67;0.98;;;13.00;99.90;;;;;;5073703;28;20193;-74
2022/09/18 11:58:44;;;;;;;1.08;0.98;;;13.10;99.90;;;;;;5074131;28;20625;-74
2022/09/18 12:01:45;;;;;;;0.77;0.77;;;12.90;99.90;;;;;;5073863;28;20227;-74
2022/09/18 12:04:40;;;;;;;2.22;1.02;;;12.80;99.90;;;;;;5052691;28;20178;-74
2022/09/18 12:07:24;;;;;;;2.17;1.40;;;12.90;99.90;;;;;;5073541;28;20202;-74
2022/09/18 12:10:16;;;;;;;1.05;0.95;;;13.20;99.90;;;;;;5073529;28;20169;-74
2022/09/18 12:12:49;;;;;;;2.10;0.80;;;13.60;99.90;;;;;;5052055;28;20197;-74
2022/09/18 12:15:24;;;;;;;0.70;0.70;;;13.90;99.90;;;;;;5074868;28;20212;-74
2022/09/18 12:18:03;;;;;;;1.38;0.77;;;14.20;99.90;;;;;;5073282;28;20197;-74
2022/09/18 12:20:44;;;;;;;1.42;0.70;;;14.50;99.90;;;;;;5073981;28;20173;-74
2022/09/18 12:23:44;;;;;;;0.60;0.60;;;14.60;99.90;;;;;;5062652;28;20260;-74
2022/09/18 12:26:51;;;;;;;0.52;0.52;;;14.80;99.90;;;;;;5073058;28;20208;-74
2022/09/18 12:29:54;;;;;;;1.38;0.55;;;15.00;99.90;;;;;;5073133;28;20243;-74
2022/09/18 12:32:29;;;;;;;2.58;0.80;;;15.20;99.90;;;;;;5067138;28;20283;-74
2022/09/18 12:35:35;;;;;;;0.60;0.60;;;15.40;99.90;;;;;;5072698;28;20173;-75
2022/09/18 12:38:12;;;;;;;0.52;0.52;;;15.50;99.90;;;;;;5072756;28;20176;-75
2022/09/18 12:41:00;;;;;;;0.70;0.68;;;15.50;99.90;;;;;;5072866;28;20184;-75
2022/09/18 12:43:40;;;;;;;0.73;0.40;;;15.40;99.90;;;;;;5073354;28;20189;-74
2022/09/18 12:46:44;;;;;;;0.70;0.63;;;15.30;99.90;;;;;;5073489;28;20208;-74
2022/09/18 12:49:26;;;;;;;7.28;6.78;;;15.20;99.90;;;;;;5072056;28;20256;-75
2022/09/18 12:52:18;;;;;;;3.92;3.65;;;15.20;99.90;;;;;;5055622;28;20166;-75
2022/09/18 12:55:17;;;;;;;2.00;1.90;;;14.90;99.90;;;;;;5067953;28;20186;-75
2022/09/18 12:57:45;;;;;;;1.10;1.10;;;15.20;99.90;;;;;;5072626;28;20202;-74
2022/09/18 13:00:16;;;;;;;0.90;0.90;;;15.30;99.90;;;;;;5073780;28;20253;-74
2022/09/18 13:03:17;;;;;;;1.70;0.80;;;15.30;99.90;;;;;;5072767;28;20198;-74
2022/09/18 13:06:26;;;;;;;0.65;0.65;;;15.10;99.90;;;;;;5072431;28;20188;-74
2022/09/18 13:09:01;;;;;;;1.13;1.02;;;14.90;99.90;;;;;;5072926;28;20172;-75
2022/09/18 13:11:41;;;;;;;0.88;0.88;;;14.70;99.90;;;;;;5072412;28;20201;-75
2022/09/18 13:14:12;;;;;;;1.17;1.10;;;14.70;99.90;;;;;;5073273;28;20256;-75
2022/09/18 13:16:47;;;;;;;1.30;1.30;;;14.70;99.90;;;;;;5072226;28;20608;-75
2022/09/18 13:20:05;;;;;;;1.33;1.23;;;14.70;99.90;;;;;;5073156;28;20199;-74
2022/09/18 13:22:36;;;;;;;1.10;1.10;;;14.60;99.90;;;;;;5071808;28;20194;-74
2022/09/18 13:25:03;;;;;;;1.90;1.80;;;14.60;99.90;;;;;;5073173;28;20295;-74
2022/09/18 13:27:40;;;;;;;1.25;1.10;;;14.50;99.90;;;;;;5072419;28;20201;-74
2022/09/18 13:30:14;;;;;;;1.20;1.08;;;14.40;99.90;;;;;;5072813;28;20172;-74
2022/09/18 13:32:41;;;;;;;1.65;1.60;;;14.40;99.90;;;;;;5073416;28;20178;-74
2022/09/18 13:35:23;;;;;;;1.00;1.00;;;14.60;99.90;;;;;;5072199;28;20739;-74
2022/09/18 13:38:03;;;;;;;2.58;1.50;;;14.60;99.90;;;;;;5071929;28;20202;-74
2022/09/18 13:40:32;;;;;;;1.38;1.27;;;14.60;99.90;;;;;;5072160;28;20173;-74
2022/09/18 13:42:58;;;;;;;1.10;1.10;;;14.40;99.90;;;;;;5072275;28;20205;-74
2022/09/18 13:45:59;;;;;;;1.40;0.80;;;14.00;99.90;;;;;;5073241;28;20614;-74
2022/09/18 13:48:54;;;;;;;0.95;0.93;;;13.80;99.90;;;;;;5072812;28;20310;-74
2022/09/18 13:52:08;;;;;;;0.60;0.60;;;13.70;99.90;;;;;;5072051;28;20162;-74
2022/09/18 13:58:29;;;;;;;0.75;0.70;;;13.40;99.90;;;;;;5073436;28;20156;-73
2022/09/18 14:00:56;;;;;;;1.30;1.20;;;13.30;99.90;;;;;;5072137;28;20195;-73
2022/09/18 14:03:26;;;;;;;1.30;1.30;;;13.20;99.90;;;;;;5071829;28;20197;-75
2022/09/18 14:05:52;;;;;;;1.60;0.85;;;13.00;99.90;;;;;;5071821;28;20190;-74